sensor_id;sensor_type;location;lat;lon;timestamp;temperature;humidity
5556;DHT22;2801;50.972;7.856;2023-03-01T00:01:38;-4.30;99.90
5556;DHT22;2801;50.972;7.856;2023-03-01T00:04:05;-4.40;99.90
5556;DHT22;2801;50.972;7.856;2023-03-01T00:06:32;-4.50;99.90
5556;DHT22;2801;50.972;7.856;2023-03-01T00:08:59;-4.50;99.90
5556;DHT22;2801;50.972;7.856;2023-03-01T00:11:28;-4.60;99.90
5556;DHT22;2801;50.972;7.856;2023-03-01T00:13:59;-4.70;99.90
5556;DHT22;2801;50.972;7.856;2023-03-01T00:16:34;-4.60;99.90
5556;DHT22;2801;50.972;7.856;2023-03-01T00:19:06;-4.70;99.90
5556;DHT22;2801;50.972;7.856;2023-03-01T00:21:35;-4.70;99.90
5556;DHT22;2801;50.972;7.856;2023-03-01T00:24:03;-4.70;99.90
5556;DHT22;2801;50.972;7.856;2023-03-01T00:26:30;-4.70;99.90
5556;DHT22;2801;50.972;7.856;2023-03-01T00:28:58;-4.80;99.90
5556;DHT22;2801;50.972;7.856;2023-03-01T00:31:28;-4.70;99.90
5556;DHT22;2801;50.972;7.856;2023-03-01T00:33:58;-4.60;99.90
5556;DHT22;2801;50.972;7.856;2023-03-01T00:36:29;-4.60;99.90
5556;DHT22;2801;50.972;7.856;2023-03-01T00:39:02;-4.60;99.90
5556;DHT22;2801;50.972;7.856;2023-03-01T00:41:31;-4.60;99.90
5556;DHT22;2801;50.972;7.856;2023-03-01T00:43:57;-4.70;99.90
5556;DHT22;2801;50.972;7.856;2023-03-01T00:46:26;-4.80;99.90
5556;DHT22;2801;50.972;7.856;2023-03-01T00:48:54;-4.80;99.90
5556;DHT22;2801;50.972;7.856;2023-03-01T00:51:24;-4.80;99.90
5556;DHT22;2801;50.972;7.856;2023-03-01T00:53:58;-4.90;99.90
5556;DHT22;2801;50.972;7.856;2023-03-01T00:56:26;-4.90;99.90
5556;DHT22;2801;50.972;7.856;2023-03-01T00:58:54;-5.00;99.90
5556;DHT22;2801;50.972;7.856;2023-03-01T01:01:27;-5.00;99.90
5556;DHT22;2801;50.972;7.856;2023-03-01T01:04:02;-5.00;99.90
5556;DHT22;2801;50.972;7.856;2023-03-01T01:06:42;-5.00;99.90
5556;DHT22;2801;50.972;7.856;2023-03-01T01:09:13;-5.00;99.90
5556;DHT22;2801;50.972;7.856;2023-03-01T01:11:47;-5.10;99.90
5556;DHT22;2801;50.972;7.856;2023-03-01T01:14:17;-5.00;99.90
5556;DHT22;2801;50.972;7.856;2023-03-01T01:16:45;-4.90;99.90
5556;DHT22;2801;50.972;7.856;2023-03-01T01:19:12;-4.90;99.90
5556;DHT22;2801;50.972;7.856;2023-03-01T01:21:40;-4.70;99.90
5556;DHT22;2801;50.972;7.856;2023-03-01T01:24:10;-4.60;99.90
5556;DHT22;2801;50.972;7.856;2023-03-01T01:26:37;-4.50;99.90
5556;DHT22;2801;50.972;7.856;2023-03-01T01:29:05;-4.50;99.90
5556;DHT22;2801;50.972;7.856;2023-03-01T01:31:33;-4.60;99.90
5556;DHT22;2801;50.972;7.856;2023-03-01T01:34:03;-4.60;99.90
5556;DHT22;2801;50.972;7.856;2023-03-01T01:36:32;-4.70;99.90
5556;DHT22;2801;50.972;7.856;2023-03-01T01:39:00;-4.80;99.90
5556;DHT22;2801;50.972;7.856;2023-03-01T01:41:28;-4.90;99.90
5556;DHT22;2801;50.972;7.856;2023-03-01T01:44:17;-4.90;99.90
5556;DHT22;2801;50.972;7.856;2023-03-01T01:46:54;-5.00;99.90
5556;DHT22;2801;50.972;7.856;2023-03-01T01:49:40;-5.00;99.90
5556;DHT22;2801;50.972;7.856;2023-03-01T01:52:20;-5.00;99.90
5556;DHT22;2801;50.972;7.856;2023-03-01T01:55:03;-5.00;99.90
5556;DHT22;2801;50.972;7.856;2023-03-01T01:57:41;-4.90;99.90
5556;DHT22;2801;50.972;7.856;2023-03-01T02:00:17;-4.80;99.90
5556;DHT22;2801;50.972;7.856;2023-03-01T02:02:49;-4.70;99.90
5556;DHT22;2801;50.972;7.856;2023-03-01T02:05:50;-4.70;99.90
5556;DHT22;2801;50.972;7.856;2023-03-01T02:08:23;-4.80;99.90
5556;DHT22;2801;50.972;7.856;2023-03-01T02:10:54;-4.90;99.90
5556;DHT22;2801;50.972;7.856;2023-03-01T02:13:22;-5.00;99.90
5556;DHT22;2801;50.972;7.856;2023-03-01T02:15:50;-5.10;99.90
5556;DHT22;2801;50.972;7.856;2023-03-01T02:18:18;-5.10;99.90
5556;DHT22;2801;50.972;7.856;2023-03-01T02:21:11;-5.10;99.90
5556;DHT22;2801;50.972;7.856;2023-03-01T02:23:49;-5.20;99.90
5556;DHT22;2801;50.972;7.856;2023-03-01T02:26:41;-5.20;99.90
5556;DHT22;2801;50.972;7.856;2023-03-01T02:29:13;-5.30;99.90
5556;DHT22;2801;50.972;7.856;2023-03-01T02:31:40;-5.30;99.90
5556;DHT22;2801;50.972;7.856;2023-03-01T02:34:13;-5.40;99.90
5556;DHT22;2801;50.972;7.856;2023-03-01T02:37:05;-5.60;99.90
5556;DHT22;2801;50.972;7.856;2023-03-01T02:39:52;-5.60;99.90
5556;DHT22;2801;50.972;7.856;2023-03-01T02:42:30;-5.70;99.90
5556;DHT22;2801;50.972;7.856;2023-03-01T02:44:59;-5.60;99.90
5556;DHT22;2801;50.972;7.856;2023-03-01T02:47:26;-5.60;99.90
5556;DHT22;2801;50.972;7.856;2023-03-01T02:49:53;-5.50;99.90
5556;DHT22;2801;50.972;7.856;2023-03-01T02:55:10;-5.30;99.90
5556;DHT22;2801;50.972;7.856;2023-03-01T02:57:43;-5.20;99.90
5556;DHT22;2801;50.972;7.856;2023-03-01T03:00:14;-5.30;99.90
5556;DHT22;2801;50.972;7.856;2023-03-01T03:02:50;-5.40;99.90
5556;DHT22;2801;50.972;7.856;2023-03-01T03:05:22;-5.30;99.90
5556;DHT22;2801;50.972;7.856;2023-03-01T03:07:52;-5.30;99.90
5556;DHT22;2801;50.972;7.856;2023-03-01T03:10:25;-5.30;99.90
5556;DHT22;2801;50.972;7.856;2023-03-01T03:12:57;-5.40;99.90
5556;DHT22;2801;50.972;7.856;2023-03-01T03:15:29;-5.50;99.90
5556;DHT22;2801;50.972;7.856;2023-03-01T03:17:57;-5.60;99.90
5556;DHT22;2801;50.972;7.856;2023-03-01T03:20:27;-5.70;99.90
5556;DHT22;2801;50.972;7.856;2023-03-01T03:22:56;-5.70;99.90
5556;DHT22;2801;50.972;7.856;2023-03-01T03:25:28;-5.70;99.90
5556;DHT22;2801;50.972;7.856;2023-03-01T03:27:56;-5.70;99.90
5556;DHT22;2801;50.972;7.856;2023-03-01T03:30:27;-5.60;99.90
5556;DHT22;2801;50.972;7.856;2023-03-01T03:32:57;-5.70;99.90
5556;DHT22;2801;50.972;7.856;2023-03-01T03:35:30;-5.70;99.90
5556;DHT22;2801;50.972;7.856;2023-03-01T03:38:01;-5.80;99.90
5556;DHT22;2801;50.972;7.856;2023-03-01T03:40:40;-5.80;99.90
5556;DHT22;2801;50.972;7.856;2023-03-01T03:43:14;-5.90;99.90
5556;DHT22;2801;50.972;7.856;2023-03-01T03:45:45;-6.00;99.90
5556;DHT22;2801;50.972;7.856;2023-03-01T03:48:12;-6.00;99.90
5556;DHT22;2801;50.972;7.856;2023-03-01T03:50:40;-6.00;99.90
5556;DHT22;2801;50.972;7.856;2023-03-01T03:53:10;-6.10;99.90
5556;DHT22;2801;50.972;7.856;2023-03-01T03:55:38;-6.10;99.90
5556;DHT22;2801;50.972;7.856;2023-03-01T03:58:08;-6.20;99.90
5556;DHT22;2801;50.972;7.856;2023-03-01T04:00:41;-6.20;99.90
5556;DHT22;2801;50.972;7.856;2023-03-01T04:03:11;-6.20;99.90
5556;DHT22;2801;50.972;7.856;2023-03-01T04:05:40;-6.10;99.90
5556;DHT22;2801;50.972;7.856;2023-03-01T04:08:08;-6.10;99.90
5556;DHT22;2801;50.972;7.856;2023-03-01T04:10:45;-6.10;99.90
5556;DHT22;2801;50.972;7.856;2023-03-01T04:13:20;-6.20;99.90
5556;DHT22;2801;50.972;7.856;2023-03-01T04:15:50;-6.20;99.90
5556;DHT22;2801;50.972;7.856;2023-03-01T04:18:22;-6.20;99.90
5556;DHT22;2801;50.972;7.856;2023-03-01T04:20:50;-6.30;99.90
5556;DHT22;2801;50.972;7.856;2023-03-01T04:23:19;-6.30;99.90
5556;DHT22;2801;50.972;7.856;2023-03-01T04:28:34;-6.20;99.90
5556;DHT22;2801;50.972;7.856;2023-03-01T04:31:14;-6.10;99.90
5556;DHT22;2801;50.972;7.856;2023-03-01T04:36:14;-6.20;99.90
5556;DHT22;2801;50.972;7.856;2023-03-01T04:38:42;-6.20;99.90
5556;DHT22;2801;50.972;7.856;2023-03-01T04:41:15;-6.30;99.90
5556;DHT22;2801;50.972;7.856;2023-03-01T04:43:44;-6.30;99.90
5556;DHT22;2801;50.972;7.856;2023-03-01T04:46:15;-6.30;99.90
5556;DHT22;2801;50.972;7.856;2023-03-01T04:48:45;-6.40;99.90
5556;DHT22;2801;50.972;7.856;2023-03-01T04:51:13;-6.40;99.90
5556;DHT22;2801;50.972;7.856;2023-03-01T04:53:41;-6.30;99.90
5556;DHT22;2801;50.972;7.856;2023-03-01T04:56:09;-6.30;99.90
5556;DHT22;2801;50.972;7.856;2023-03-01T04:58:37;-6.20;99.90
5556;DHT22;2801;50.972;7.856;2023-03-01T05:01:15;-6.30;99.90
5556;DHT22;2801;50.972;7.856;2023-03-01T05:03:46;-6.30;99.90
5556;DHT22;2801;50.972;7.856;2023-03-01T05:06:15;-6.40;99.90
5556;DHT22;2801;50.972;7.856;2023-03-01T05:08:43;-6.40;99.90
5556;DHT22;2801;50.972;7.856;2023-03-01T05:11:11;-6.40;99.90
5556;DHT22;2801;50.972;7.856;2023-03-01T05:13:38;-6.40;99.90
5556;DHT22;2801;50.972;7.856;2023-03-01T05:16:07;-6.30;99.90
5556;DHT22;2801;50.972;7.856;2023-03-01T05:18:39;-6.40;99.90
5556;DHT22;2801;50.972;7.856;2023-03-01T05:21:11;-6.40;99.90
5556;DHT22;2801;50.972;7.856;2023-03-01T05:23:39;-6.50;99.90
5556;DHT22;2801;50.972;7.856;2023-03-01T05:26:07;-6.50;99.90
5556;DHT22;2801;50.972;7.856;2023-03-01T05:28:47;-6.60;99.90
5556;DHT22;2801;50.972;7.856;2023-03-01T05:31:14;-6.60;99.90
5556;DHT22;2801;50.972;7.856;2023-03-01T05:33:42;-6.60;99.90
5556;DHT22;2801;50.972;7.856;2023-03-01T05:36:10;-6.60;99.90
5556;DHT22;2801;50.972;7.856;2023-03-01T05:38:36;-6.50;99.90
5556;DHT22;2801;50.972;7.856;2023-03-01T05:41:03;-6.50;99.90
5556;DHT22;2801;50.972;7.856;2023-03-01T05:43:31;-6.50;99.90
5556;DHT22;2801;50.972;7.856;2023-03-01T05:46:01;-6.40;99.90
5556;DHT22;2801;50.972;7.856;2023-03-01T05:48:29;-6.30;99.90
5556;DHT22;2801;50.972;7.856;2023-03-01T05:50:59;-6.30;99.90
5556;DHT22;2801;50.972;7.856;2023-03-01T05:53:27;-6.30;99.90
5556;DHT22;2801;50.972;7.856;2023-03-01T05:55:53;-6.30;99.90
5556;DHT22;2801;50.972;7.856;2023-03-01T05:58:21;-6.30;99.90
5556;DHT22;2801;50.972;7.856;2023-03-01T06:00:49;-6.30;99.90
5556;DHT22;2801;50.972;7.856;2023-03-01T06:03:18;-6.40;99.90
5556;DHT22;2801;50.972;7.856;2023-03-01T06:05:45;-6.40;99.90
5556;DHT22;2801;50.972;7.856;2023-03-01T06:08:13;-6.40;99.90
5556;DHT22;2801;50.972;7.856;2023-03-01T06:10:40;-6.40;99.90
5556;DHT22;2801;50.972;7.856;2023-03-01T06:13:07;-6.50;99.90
5556;DHT22;2801;50.972;7.856;2023-03-01T06:15:34;-6.50;99.90
5556;DHT22;2801;50.972;7.856;2023-03-01T06:18:01;-6.60;99.90
5556;DHT22;2801;50.972;7.856;2023-03-01T06:20:28;-6.60;99.90
5556;DHT22;2801;50.972;7.856;2023-03-01T06:22:56;-6.50;99.90
5556;DHT22;2801;50.972;7.856;2023-03-01T06:25:24;-6.60;99.90
5556;DHT22;2801;50.972;7.856;2023-03-01T06:27:53;-6.50;99.90
5556;DHT22;2801;50.972;7.856;2023-03-01T06:30:21;-6.40;99.90
5556;DHT22;2801;50.972;7.856;2023-03-01T06:32:50;-6.30;99.90
5556;DHT22;2801;50.972;7.856;2023-03-01T06:35:18;-6.10;99.90
5556;DHT22;2801;50.972;7.856;2023-03-01T06:37:46;-6.20;99.90
5556;DHT22;2801;50.972;7.856;2023-03-01T06:40:14;-6.30;99.90
5556;DHT22;2801;50.972;7.856;2023-03-01T06:42:43;-6.30;99.90
5556;DHT22;2801;50.972;7.856;2023-03-01T06:45:20;-6.20;99.90
5556;DHT22;2801;50.972;7.856;2023-03-01T06:47:47;-6.10;99.90
5556;DHT22;2801;50.972;7.856;2023-03-01T06:50:15;-6.00;99.90
5556;DHT22;2801;50.972;7.856;2023-03-01T06:52:43;-5.90;99.90
5556;DHT22;2801;50.972;7.856;2023-03-01T06:55:12;-5.80;99.90
5556;DHT22;2801;50.972;7.856;2023-03-01T06:57:39;-5.60;99.90
5556;DHT22;2801;50.972;7.856;2023-03-01T07:00:07;-5.20;99.90
5556;DHT22;2801;50.972;7.856;2023-03-01T07:02:34;-4.80;99.90
5556;DHT22;2801;50.972;7.856;2023-03-01T07:05:01;-4.20;99.90
5556;DHT22;2801;50.972;7.856;2023-03-01T07:07:28;-3.50;99.90
5556;DHT22;2801;50.972;7.856;2023-03-01T07:09:55;-2.70;99.90
5556;DHT22;2801;50.972;7.856;2023-03-01T07:12:22;-1.90;99.90
5556;DHT22;2801;50.972;7.856;2023-03-01T07:14:52;-0.90;99.90
5556;DHT22;2801;50.972;7.856;2023-03-01T07:17:19;0.30;99.90
5556;DHT22;2801;50.972;7.856;2023-03-01T07:19:46;1.40;99.90
5556;DHT22;2801;50.972;7.856;2023-03-01T07:22:13;2.60;99.90
5556;DHT22;2801;50.972;7.856;2023-03-01T07:24:43;3.60;99.90
5556;DHT22;2801;50.972;7.856;2023-03-01T07:27:10;4.70;99.90
5556;DHT22;2801;50.972;7.856;2023-03-01T07:29:37;5.50;99.90
5556;DHT22;2801;50.972;7.856;2023-03-01T07:32:06;5.60;99.90
5556;DHT22;2801;50.972;7.856;2023-03-01T07:34:34;5.00;99.60
5556;DHT22;2801;50.972;7.856;2023-03-01T07:37:00;4.20;99.90
5556;DHT22;2801;50.972;7.856;2023-03-01T07:39:27;3.30;99.90
5556;DHT22;2801;50.972;7.856;2023-03-01T07:41:54;2.70;99.90
5556;DHT22;2801;50.972;7.856;2023-03-01T07:44:21;2.10;99.90
5556;DHT22;2801;50.972;7.856;2023-03-01T07:46:48;1.50;99.90
5556;DHT22;2801;50.972;7.856;2023-03-01T07:49:15;1.00;99.90
5556;DHT22;2801;50.972;7.856;2023-03-01T07:51:43;0.90;99.90
5556;DHT22;2801;50.972;7.856;2023-03-01T07:54:10;1.10;99.90
5556;DHT22;2801;50.972;7.856;2023-03-01T07:56:37;1.40;99.90
5556;DHT22;2801;50.972;7.856;2023-03-01T07:59:03;1.90;99.90
5556;DHT22;2801;50.972;7.856;2023-03-01T08:01:30;2.20;99.60
5556;DHT22;2801;50.972;7.856;2023-03-01T08:03:57;2.20;98.30
5556;DHT22;2801;50.972;7.856;2023-03-01T08:06:24;2.40;98.70
5556;DHT22;2801;50.972;7.856;2023-03-01T08:08:51;3.00;98.10
5556;DHT22;2801;50.972;7.856;2023-03-01T08:11:18;3.60;97.70
5556;DHT22;2801;50.972;7.856;2023-03-01T08:13:47;4.10;95.40
5556;DHT22;2801;50.972;7.856;2023-03-01T08:16:20;5.00;95.40
5556;DHT22;2801;50.972;7.856;2023-03-01T08:18:47;5.40;93.30
5556;DHT22;2801;50.972;7.856;2023-03-01T08:21:16;5.50;93.60
5556;DHT22;2801;50.972;7.856;2023-03-01T08:23:44;5.60;95.00
5556;DHT22;2801;50.972;7.856;2023-03-01T08:26:17;5.60;92.20
5556;DHT22;2801;50.972;7.856;2023-03-01T08:28:46;5.70;91.80
5556;DHT22;2801;50.972;7.856;2023-03-01T08:31:37;5.30;91.90
5556;DHT22;2801;50.972;7.856;2023-03-01T08:34:09;4.80;92.20
5556;DHT22;2801;50.972;7.856;2023-03-01T08:36:41;4.50;93.30
5556;DHT22;2801;50.972;7.856;2023-03-01T08:39:11;4.30;93.30
5556;DHT22;2801;50.972;7.856;2023-03-01T08:41:39;4.50;93.30
5556;DHT22;2801;50.972;7.856;2023-03-01T08:44:07;4.70;93.10
5556;DHT22;2801;50.972;7.856;2023-03-01T08:46:38;4.50;92.70
5556;DHT22;2801;50.972;7.856;2023-03-01T08:49:15;4.90;93.00
5556;DHT22;2801;50.972;7.856;2023-03-01T08:51:45;5.40;91.60
5556;DHT22;2801;50.972;7.856;2023-03-01T08:54:18;6.20;91.70
5556;DHT22;2801;50.972;7.856;2023-03-01T08:56:47;7.20;92.10
5556;DHT22;2801;50.972;7.856;2023-03-01T08:59:17;7.30;85.30
5556;DHT22;2801;50.972;7.856;2023-03-01T09:01:45;7.40;84.40
5556;DHT22;2801;50.972;7.856;2023-03-01T09:04:12;7.90;87.60
5556;DHT22;2801;50.972;7.856;2023-03-01T09:06:41;7.90;81.30
5556;DHT22;2801;50.972;7.856;2023-03-01T09:09:16;7.70;80.80
5556;DHT22;2801;50.972;7.856;2023-03-01T09:11:45;7.70;81.20
5556;DHT22;2801;50.972;7.856;2023-03-01T09:14:13;7.80;80.90
5556;DHT22;2801;50.972;7.856;2023-03-01T09:16:41;7.60;79.00
5556;DHT22;2801;50.972;7.856;2023-03-01T09:19:08;7.40;81.30
5556;DHT22;2801;50.972;7.856;2023-03-01T09:21:35;7.40;81.90
5556;DHT22;2801;50.972;7.856;2023-03-01T09:24:12;8.00;83.60
5556;DHT22;2801;50.972;7.856;2023-03-01T09:26:40;8.70;83.80
5556;DHT22;2801;50.972;7.856;2023-03-01T09:29:06;9.20;77.50
5556;DHT22;2801;50.972;7.856;2023-03-01T09:31:36;9.50;78.90
5556;DHT22;2801;50.972;7.856;2023-03-01T09:34:03;9.30;75.50
5556;DHT22;2801;50.972;7.856;2023-03-01T09:36:30;8.90;73.30
5556;DHT22;2801;50.972;7.856;2023-03-01T09:38:58;8.10;73.20
5556;DHT22;2801;50.972;7.856;2023-03-01T09:44:28;8.70;77.80
5556;DHT22;2801;50.972;7.856;2023-03-01T09:46:58;8.40;73.80
5556;DHT22;2801;50.972;7.856;2023-03-01T09:49:35;8.40;74.00
5556;DHT22;2801;50.972;7.856;2023-03-01T09:52:23;8.70;74.90
5556;DHT22;2801;50.972;7.856;2023-03-01T09:54:56;8.00;73.90
5556;DHT22;2801;50.972;7.856;2023-03-01T09:57:47;7.40;75.40
5556;DHT22;2801;50.972;7.856;2023-03-01T10:00:28;7.00;75.50
5556;DHT22;2801;50.972;7.856;2023-03-01T10:05:55;5.80;78.10
5556;DHT22;2801;50.972;7.856;2023-03-01T10:08:54;5.60;80.00
5556;DHT22;2801;50.972;7.856;2023-03-01T10:11:30;5.30;80.10
5556;DHT22;2801;50.972;7.856;2023-03-01T10:16:58;5.60;80.10
5556;DHT22;2801;50.972;7.856;2023-03-01T10:19:34;5.20;80.00
5556;DHT22;2801;50.972;7.856;2023-03-01T10:22:16;5.50;80.00
5556;DHT22;2801;50.972;7.856;2023-03-01T10:24:48;5.50;79.00
5556;DHT22;2801;50.972;7.856;2023-03-01T10:27:25;5.60;78.70
5556;DHT22;2801;50.972;7.856;2023-03-01T10:33:24;6.30;77.50
5556;DHT22;2801;50.972;7.856;2023-03-01T10:35:53;6.50;76.30
5556;DHT22;2801;50.972;7.856;2023-03-01T10:38:21;6.40;75.10
5556;DHT22;2801;50.972;7.856;2023-03-01T10:41:05;6.30;77.60
5556;DHT22;2801;50.972;7.856;2023-03-01T10:43:54;6.10;76.30
5556;DHT22;2801;50.972;7.856;2023-03-01T10:49:20;6.30;78.30
5556;DHT22;2801;50.972;7.856;2023-03-01T10:51:51;6.40;78.90
5556;DHT22;2801;50.972;7.856;2023-03-01T10:54:30;6.60;76.30
5556;DHT22;2801;50.972;7.856;2023-03-01T10:57:04;7.00;74.80
5556;DHT22;2801;50.972;7.856;2023-03-01T10:59:36;7.60;78.60
5556;DHT22;2801;50.972;7.856;2023-03-01T11:02:23;8.40;74.90
5556;DHT22;2801;50.972;7.856;2023-03-01T11:05:18;9.10;74.30
5556;DHT22;2801;50.972;7.856;2023-03-01T11:07:55;9.40;68.20
5556;DHT22;2801;50.972;7.856;2023-03-01T11:10:29;9.50;70.10
5556;DHT22;2801;50.972;7.856;2023-03-01T11:13:18;9.50;66.70
5556;DHT22;2801;50.972;7.856;2023-03-01T11:16:00;9.50;64.90
5556;DHT22;2801;50.972;7.856;2023-03-01T11:18:31;8.90;64.60
5556;DHT22;2801;50.972;7.856;2023-03-01T11:21:13;8.60;66.60
5556;DHT22;2801;50.972;7.856;2023-03-01T11:23:43;8.70;70.00
5556;DHT22;2801;50.972;7.856;2023-03-01T11:26:13;8.90;68.80
5556;DHT22;2801;50.972;7.856;2023-03-01T11:28:42;8.70;67.20
5556;DHT22;2801;50.972;7.856;2023-03-01T11:31:15;8.60;70.00
5556;DHT22;2801;50.972;7.856;2023-03-01T11:34:07;8.70;69.40
5556;DHT22;2801;50.972;7.856;2023-03-01T11:36:54;8.30;66.50
5556;DHT22;2801;50.972;7.856;2023-03-01T11:39:52;7.80;68.60
5556;DHT22;2801;50.972;7.856;2023-03-01T11:45:34;7.00;67.80
5556;DHT22;2801;50.972;7.856;2023-03-01T11:48:47;7.00;70.80
5556;DHT22;2801;50.972;7.856;2023-03-01T12:00:07;6.30;74.60
5556;DHT22;2801;50.972;7.856;2023-03-01T12:05:59;6.20;71.10
5556;DHT22;2801;50.972;7.856;2023-03-01T12:20:17;5.80;69.10
5556;DHT22;2801;50.972;7.856;2023-03-01T12:29:26;6.10;70.60
5556;DHT22;2801;50.972;7.856;2023-03-01T12:32:00;6.20;69.70
5556;DHT22;2801;50.972;7.856;2023-03-01T12:54:33;6.80;70.50
5556;DHT22;2801;50.972;7.856;2023-03-01T13:03:00;6.80;69.30
5556;DHT22;2801;50.972;7.856;2023-03-01T13:06:03;6.90;72.40
5556;DHT22;2801;50.972;7.856;2023-03-01T13:08:48;6.90;67.10
5556;DHT22;2801;50.972;7.856;2023-03-01T13:11:29;6.80;66.30
5556;DHT22;2801;50.972;7.856;2023-03-01T13:16:54;7.00;66.40
5556;DHT22;2801;50.972;7.856;2023-03-01T13:19:24;7.10;65.30
5556;DHT22;2801;50.972;7.856;2023-03-01T13:21:53;7.30;67.80
5556;DHT22;2801;50.972;7.856;2023-03-01T13:29:49;7.70;70.60
5556;DHT22;2801;50.972;7.856;2023-03-01T13:32:32;7.80;70.10
5556;DHT22;2801;50.972;7.856;2023-03-01T13:37:46;7.90;61.80
5556;DHT22;2801;50.972;7.856;2023-03-01T13:42:55;7.70;66.50
5556;DHT22;2801;50.972;7.856;2023-03-01T13:45:43;7.90;69.60
5556;DHT22;2801;50.972;7.856;2023-03-01T13:48:23;8.10;60.50
5556;DHT22;2801;50.972;7.856;2023-03-01T13:50:59;7.90;59.10
5556;DHT22;2801;50.972;7.856;2023-03-01T13:53:33;7.90;62.30
5556;DHT22;2801;50.972;7.856;2023-03-01T13:56:14;7.90;60.00
5556;DHT22;2801;50.972;7.856;2023-03-01T13:58:54;8.00;65.00
5556;DHT22;2801;50.972;7.856;2023-03-01T14:01:31;8.10;64.10
5556;DHT22;2801;50.972;7.856;2023-03-01T14:04:02;8.10;63.60
5556;DHT22;2801;50.972;7.856;2023-03-01T14:06:32;8.00;58.90
5556;DHT22;2801;50.972;7.856;2023-03-01T14:12:24;8.00;59.00
5556;DHT22;2801;50.972;7.856;2023-03-01T14:15:20;7.90;59.50
5556;DHT22;2801;50.972;7.856;2023-03-01T14:18:18;7.90;61.40
5556;DHT22;2801;50.972;7.856;2023-03-01T14:20:51;7.80;59.90
5556;DHT22;2801;50.972;7.856;2023-03-01T14:23:21;7.90;65.30
5556;DHT22;2801;50.972;7.856;2023-03-01T14:25:51;8.10;67.40
5556;DHT22;2801;50.972;7.856;2023-03-01T14:28:24;8.00;68.80
5556;DHT22;2801;50.972;7.856;2023-03-01T14:30:59;8.10;69.80
5556;DHT22;2801;50.972;7.856;2023-03-01T14:33:32;8.20;69.90
5556;DHT22;2801;50.972;7.856;2023-03-01T14:36:12;8.10;70.00
5556;DHT22;2801;50.972;7.856;2023-03-01T14:38:48;8.20;71.80
5556;DHT22;2801;50.972;7.856;2023-03-01T14:41:18;8.30;71.30
5556;DHT22;2801;50.972;7.856;2023-03-01T14:43:51;8.30;72.10
5556;DHT22;2801;50.972;7.856;2023-03-01T14:46:43;8.10;70.50
5556;DHT22;2801;50.972;7.856;2023-03-01T14:49:14;8.10;72.90
5556;DHT22;2801;50.972;7.856;2023-03-01T14:51:53;8.10;73.30
5556;DHT22;2801;50.972;7.856;2023-03-01T14:54:27;8.10;74.30
5556;DHT22;2801;50.972;7.856;2023-03-01T14:57:01;8.00;73.20
5556;DHT22;2801;50.972;7.856;2023-03-01T14:59:28;8.10;73.30
5556;DHT22;2801;50.972;7.856;2023-03-01T15:01:57;8.00;72.30
5556;DHT22;2801;50.972;7.856;2023-03-01T15:04:26;8.00;74.70
5556;DHT22;2801;50.972;7.856;2023-03-01T15:06:55;7.90;73.00
5556;DHT22;2801;50.972;7.856;2023-03-01T15:09:32;8.00;74.70
5556;DHT22;2801;50.972;7.856;2023-03-01T15:12:40;8.00;73.40
5556;DHT22;2801;50.972;7.856;2023-03-01T15:15:34;7.80;66.70
5556;DHT22;2801;50.972;7.856;2023-03-01T15:18:11;7.80;67.10
5556;DHT22;2801;50.972;7.856;2023-03-01T15:20:42;7.70;64.10
5556;DHT22;2801;50.972;7.856;2023-03-01T15:23:22;7.60;62.40
5556;DHT22;2801;50.972;7.856;2023-03-01T15:25:53;7.50;65.70
5556;DHT22;2801;50.972;7.856;2023-03-01T15:28:43;7.50;66.20
5556;DHT22;2801;50.972;7.856;2023-03-01T15:33:48;7.40;66.40
5556;DHT22;2801;50.972;7.856;2023-03-01T15:39:47;7.20;68.10
5556;DHT22;2801;50.972;7.856;2023-03-01T15:47:58;6.60;65.70
5556;DHT22;2801;50.972;7.856;2023-03-01T15:50:31;6.50;67.00
5556;DHT22;2801;50.972;7.856;2023-03-01T15:53:01;6.50;68.90
5556;DHT22;2801;50.972;7.856;2023-03-01T15:55:33;6.40;69.10
5556;DHT22;2801;50.972;7.856;2023-03-01T15:58:05;6.20;69.40
5556;DHT22;2801;50.972;7.856;2023-03-01T16:00:38;6.10;70.00
5556;DHT22;2801;50.972;7.856;2023-03-01T16:03:23;6.00;69.60
5556;DHT22;2801;50.972;7.856;2023-03-01T16:05:50;5.90;70.50
5556;DHT22;2801;50.972;7.856;2023-03-01T16:08:18;5.90;71.20
5556;DHT22;2801;50.972;7.856;2023-03-01T16:10:46;5.70;71.10
5556;DHT22;2801;50.972;7.856;2023-03-01T16:13:14;5.70;71.80
5556;DHT22;2801;50.972;7.856;2023-03-01T16:15:41;5.60;71.90
5556;DHT22;2801;50.972;7.856;2023-03-01T16:18:08;5.50;71.80
5556;DHT22;2801;50.972;7.856;2023-03-01T16:20:37;5.40;71.60
5556;DHT22;2801;50.972;7.856;2023-03-01T16:23:07;5.30;71.50
5556;DHT22;2801;50.972;7.856;2023-03-01T16:25:35;5.30;72.40
5556;DHT22;2801;50.972;7.856;2023-03-01T16:28:03;5.20;71.20
5556;DHT22;2801;50.972;7.856;2023-03-01T16:30:36;5.20;72.50
5556;DHT22;2801;50.972;7.856;2023-03-01T16:33:03;5.10;72.00
5556;DHT22;2801;50.972;7.856;2023-03-01T16:35:52;5.00;72.50
5556;DHT22;2801;50.972;7.856;2023-03-01T16:38:19;4.90;73.90
5556;DHT22;2801;50.972;7.856;2023-03-01T16:40:50;4.80;73.60
5556;DHT22;2801;50.972;7.856;2023-03-01T16:43:18;4.70;73.40
5556;DHT22;2801;50.972;7.856;2023-03-01T16:45:45;4.70;72.30
5556;DHT22;2801;50.972;7.856;2023-03-01T16:48:13;4.60;73.10
5556;DHT22;2801;50.972;7.856;2023-03-01T16:50:40;4.60;73.30
5556;DHT22;2801;50.972;7.856;2023-03-01T16:53:07;4.50;72.90
5556;DHT22;2801;50.972;7.856;2023-03-01T16:55:33;4.40;73.40
5556;DHT22;2801;50.972;7.856;2023-03-01T16:58:01;4.30;74.10
5556;DHT22;2801;50.972;7.856;2023-03-01T17:00:28;4.30;74.40
5556;DHT22;2801;50.972;7.856;2023-03-01T17:02:55;4.10;73.80
5556;DHT22;2801;50.972;7.856;2023-03-01T17:05:23;4.10;74.20
5556;DHT22;2801;50.972;7.856;2023-03-01T17:07:51;4.00;74.60
5556;DHT22;2801;50.972;7.856;2023-03-01T17:10:18;3.90;74.90
5556;DHT22;2801;50.972;7.856;2023-03-01T17:12:48;3.80;75.30
5556;DHT22;2801;50.972;7.856;2023-03-01T17:15:16;3.60;75.90
5556;DHT22;2801;50.972;7.856;2023-03-01T17:17:43;3.40;76.10
5556;DHT22;2801;50.972;7.856;2023-03-01T17:20:10;3.30;76.30
5556;DHT22;2801;50.972;7.856;2023-03-01T17:22:37;3.20;77.00
5556;DHT22;2801;50.972;7.856;2023-03-01T17:25:08;3.10;77.10
5556;DHT22;2801;50.972;7.856;2023-03-01T17:27:39;3.10;77.60
5556;DHT22;2801;50.972;7.856;2023-03-01T17:30:08;2.90;77.50
5556;DHT22;2801;50.972;7.856;2023-03-01T17:32:38;2.80;78.10
5556;DHT22;2801;50.972;7.856;2023-03-01T17:35:06;2.60;78.20
5556;DHT22;2801;50.972;7.856;2023-03-01T17:37:33;2.60;78.40
5556;DHT22;2801;50.972;7.856;2023-03-01T17:40:02;2.50;79.00
5556;DHT22;2801;50.972;7.856;2023-03-01T17:42:30;2.40;79.40
5556;DHT22;2801;50.972;7.856;2023-03-01T17:44:57;2.40;79.00
5556;DHT22;2801;50.972;7.856;2023-03-01T17:47:24;2.40;79.60
5556;DHT22;2801;50.972;7.856;2023-03-01T17:49:50;2.30;80.40
5556;DHT22;2801;50.972;7.856;2023-03-01T17:52:17;2.20;80.30
5556;DHT22;2801;50.972;7.856;2023-03-01T17:54:49;2.10;80.90
5556;DHT22;2801;50.972;7.856;2023-03-01T17:57:16;2.00;81.60
5556;DHT22;2801;50.972;7.856;2023-03-01T17:59:43;1.90;81.40
5556;DHT22;2801;50.972;7.856;2023-03-01T18:02:11;1.80;80.90
5556;DHT22;2801;50.972;7.856;2023-03-01T18:04:38;1.70;80.50
5556;DHT22;2801;50.972;7.856;2023-03-01T18:07:05;1.50;81.50
5556;DHT22;2801;50.972;7.856;2023-03-01T18:09:32;1.30;81.90
5556;DHT22;2801;50.972;7.856;2023-03-01T18:11:58;1.30;81.50
5556;DHT22;2801;50.972;7.856;2023-03-01T18:14:25;1.10;81.60
5556;DHT22;2801;50.972;7.856;2023-03-01T18:16:55;1.10;81.80
5556;DHT22;2801;50.972;7.856;2023-03-01T18:19:22;1.00;82.10
5556;DHT22;2801;50.972;7.856;2023-03-01T18:21:48;0.90;82.60
5556;DHT22;2801;50.972;7.856;2023-03-01T18:24:15;0.90;82.60
5556;DHT22;2801;50.972;7.856;2023-03-01T18:26:42;0.80;82.70
5556;DHT22;2801;50.972;7.856;2023-03-01T18:29:09;0.80;82.90
5556;DHT22;2801;50.972;7.856;2023-03-01T18:31:36;0.70;83.60
5556;DHT22;2801;50.972;7.856;2023-03-01T18:34:03;0.60;83.80